sensor_id;sensor_type;location;lat;lon;timestamp;temperature;humidity
66576;SHT31;53428;47.686;16.584;2023-11-21T00:01:11;8.12;86.58
66576;SHT31;53428;47.686;16.584;2023-11-21T00:06:11;7.98;87.64
66576;SHT31;53428;47.686;16.584;2023-11-21T00:11:10;7.82;88.85
66576;SHT31;53428;47.686;16.584;2023-11-21T00:16:10;7.66;89.62
66576;SHT31;53428;47.686;16.584;2023-11-21T00:21:09;7.70;88.92
66576;SHT31;53428;47.686;16.584;2023-11-21T00:26:08;7.66;88.39
66576;SHT31;53428;47.686;16.584;2023-11-21T00:31:07;7.93;87.17
66576;SHT31;53428;47.686;16.584;2023-11-21T00:36:07;7.87;88.06
66576;SHT31;53428;47.686;16.584;2023-11-21T00:41:08;8.39;84.84
66576;SHT31;53428;47.686;16.584;2023-11-21T00:46:07;8.52;84.35
66576;SHT31;53428;47.686;16.584;2023-11-21T00:51:07;8.38;85.63
66576;SHT31;53428;47.686;16.584;2023-11-21T00:56:06;8.51;84.62
66576;SHT31;53428;47.686;16.584;2023-11-21T01:01:07;8.39;85.73
66576;SHT31;53428;47.686;16.584;2023-11-21T01:06:07;8.22;86.47
66576;SHT31;53428;47.686;16.584;2023-11-21T01:11:08;7.97;87.73
66576;SHT31;53428;47.686;16.584;2023-11-21T01:16:07;7.80;88.64
66576;SHT31;53428;47.686;16.584;2023-11-21T01:21:07;7.76;88.78
66576;SHT31;53428;47.686;16.584;2023-11-21T01:26:08;7.66;89.09
66576;SHT31;53428;47.686;16.584;2023-11-21T01:31:07;7.52;89.88
66576;SHT31;53428;47.686;16.584;2023-11-21T01:36:07;7.26;91.20
66576;SHT31;53428;47.686;16.584;2023-11-21T01:41:06;7.16;91.91
66576;SHT31;53428;47.686;16.584;2023-11-21T01:46:06;6.90;92.44
66576;SHT31;53428;47.686;16.584;2023-11-21T01:51:05;6.88;92.29
66576;SHT31;53428;47.686;16.584;2023-11-21T01:56:05;6.83;92.58
66576;SHT31;53428;47.686;16.584;2023-11-21T02:01:07;6.83;92.54
66576;SHT31;53428;47.686;16.584;2023-11-21T02:06:07;6.98;91.78
66576;SHT31;53428;47.686;16.584;2023-11-21T02:11:08;7.14;91.72
66576;SHT31;53428;47.686;16.584;2023-11-21T02:16:10;7.16;91.18
66576;SHT31;53428;47.686;16.584;2023-11-21T02:21:10;7.04;91.86
66576;SHT31;53428;47.686;16.584;2023-11-21T02:26:10;6.94;92.46
66576;SHT31;53428;47.686;16.584;2023-11-21T02:31:09;6.98;92.15
66576;SHT31;53428;47.686;16.584;2023-11-21T02:36:09;6.97;92.19
66576;SHT31;53428;47.686;16.584;2023-11-21T02:41:08;7.09;92.00
66576;SHT31;53428;47.686;16.584;2023-11-21T02:46:08;7.32;90.92
66576;SHT31;53428;47.686;16.584;2023-11-21T02:51:07;7.31;90.98
66576;SHT31;53428;47.686;16.584;2023-11-21T02:56:07;7.29;91.07
66576;SHT31;53428;47.686;16.584;2023-11-21T03:01:06;7.31;91.24
66576;SHT31;53428;47.686;16.584;2023-11-21T03:06:07;7.32;90.84
66576;SHT31;53428;47.686;16.584;2023-11-21T03:11:07;7.39;90.98
66576;SHT31;53428;47.686;16.584;2023-11-21T03:16:10;7.22;91.70
66576;SHT31;53428;47.686;16.584;2023-11-21T03:21:10;7.04;91.77
66576;SHT31;53428;47.686;16.584;2023-11-21T03:26:12;7.14;91.29
66576;SHT31;53428;47.686;16.584;2023-11-21T03:31:12;7.15;91.46
66576;SHT31;53428;47.686;16.584;2023-11-21T03:36:11;7.25;91.02
66576;SHT31;53428;47.686;16.584;2023-11-21T03:41:10;7.26;91.02
66576;SHT31;53428;47.686;16.584;2023-11-21T03:46:10;7.14;91.38
66576;SHT31;53428;47.686;16.584;2023-11-21T03:51:09;7.05;91.88
66576;SHT31;53428;47.686;16.584;2023-11-21T03:56:08;7.09;91.92
66576;SHT31;53428;47.686;16.584;2023-11-21T04:01:08;7.12;92.44
66576;SHT31;53428;47.686;16.584;2023-11-21T04:06:08;7.05;93.10
66576;SHT31;53428;47.686;16.584;2023-11-21T04:11:07;7.03;93.26
66576;SHT31;53428;47.686;16.584;2023-11-21T04:16:07;7.12;92.69
66576;SHT31;53428;47.686;16.584;2023-11-21T04:21:07;7.18;92.51
66576;SHT31;53428;47.686;16.584;2023-11-21T04:26:07;7.04;93.25
66576;SHT31;53428;47.686;16.584;2023-11-21T04:31:06;7.03;93.30
66576;SHT31;53428;47.686;16.584;2023-11-21T04:36:06;6.97;93.27
66576;SHT31;53428;47.686;16.584;2023-11-21T04:41:06;7.12;92.17
66576;SHT31;53428;47.686;16.584;2023-11-21T04:46:06;7.24;92.01
66576;SHT31;53428;47.686;16.584;2023-11-21T04:51:06;7.45;90.78
66576;SHT31;53428;47.686;16.584;2023-11-21T04:56:05;7.35;91.32
66576;SHT31;53428;47.686;16.584;2023-11-21T05:01:06;7.42;90.81
66576;SHT31;53428;47.686;16.584;2023-11-21T05:06:06;7.42;90.63
66576;SHT31;53428;47.686;16.584;2023-11-21T05:11:06;7.45;90.38
66576;SHT31;53428;47.686;16.584;2023-11-21T05:16:09;7.63;90.60
66576;SHT31;53428;47.686;16.584;2023-11-21T05:21:09;7.61;90.13
66576;SHT31;53428;47.686;16.584;2023-11-21T05:26:08;7.49;90.66
66576;SHT31;53428;47.686;16.584;2023-11-21T05:31:08;7.52;90.58
66576;SHT31;53428;47.686;16.584;2023-11-21T05:36:07;7.63;90.66
66576;SHT31;53428;47.686;16.584;2023-11-21T05:41:07;7.55;90.27
66576;SHT31;53428;47.686;16.584;2023-11-21T05:46:10;7.42;91.40
66576;SHT31;53428;47.686;16.584;2023-11-21T05:51:09;7.35;91.45
66576;SHT31;53428;47.686;16.584;2023-11-21T05:56:09;7.45;91.69
66576;SHT31;53428;47.686;16.584;2023-11-21T06:01:08;7.72;89.32
66576;SHT31;53428;47.686;16.584;2023-11-21T06:06:08;8.12;87.50
66576;SHT31;53428;47.686;16.584;2023-11-21T06:11:07;7.97;88.36
66576;SHT31;53428;47.686;16.584;2023-11-21T06:16:07;8.01;87.88
66576;SHT31;53428;47.686;16.584;2023-11-21T06:21:10;8.04;89.18
66576;SHT31;53428;47.686;16.584;2023-11-21T06:26:17;8.00;89.18
66576;SHT31;53428;47.686;16.584;2023-11-21T06:31:17;7.91;89.96
66576;SHT31;53428;47.686;16.584;2023-11-21T06:36:16;7.97;89.39
66576;SHT31;53428;47.686;16.584;2023-11-21T06:41:16;7.84;91.15
66576;SHT31;53428;47.686;16.584;2023-11-21T06:46:15;7.80;91.20
66576;SHT31;53428;47.686;16.584;2023-11-21T06:51:15;7.91;90.42
66576;SHT31;53428;47.686;16.584;2023-11-21T06:56:18;7.86;91.39
66576;SHT31;53428;47.686;16.584;2023-11-21T07:01:17;7.87;91.75
66576;SHT31;53428;47.686;16.584;2023-11-21T07:06:16;8.00;91.14
66576;SHT31;53428;47.686;16.584;2023-11-21T07:11:16;8.07;91.06
66576;SHT31;53428;47.686;16.584;2023-11-21T07:16:15;8.15;90.21
66576;SHT31;53428;47.686;16.584;2023-11-21T07:21:15;8.22;89.85
66576;SHT31;53428;47.686;16.584;2023-11-21T07:26:15;8.35;89.19
66576;SHT31;53428;47.686;16.584;2023-11-21T07:31:14;8.44;89.09
66576;SHT31;53428;47.686;16.584;2023-11-21T07:36:14;8.38;89.73
66576;SHT31;53428;47.686;16.584;2023-11-21T07:41:14;8.30;90.65
66576;SHT31;53428;47.686;16.584;2023-11-21T07:46:16;8.28;91.20
66576;SHT31;53428;47.686;16.584;2023-11-21T07:51:18;8.34;90.73
66576;SHT31;53428;47.686;16.584;2023-11-21T07:56:22;8.52;89.70
66576;SHT31;53428;47.686;16.584;2023-11-21T08:01:21;8.59;89.53
66576;SHT31;53428;47.686;16.584;2023-11-21T08:06:21;8.73;88.65
66576;SHT31;53428;47.686;16.584;2023-11-21T08:11:21;8.79;89.32
66576;SHT31;53428;47.686;16.584;2023-11-21T08:16:20;8.86;88.82
66576;SHT31;53428;47.686;16.584;2023-11-21T08:21:20;8.86;88.75
66576;SHT31;53428;47.686;16.584;2023-11-21T08:26:20;8.87;89.37
66576;SHT31;53428;47.686;16.584;2023-11-21T08:31:26;9.06;88.73
66576;SHT31;53428;47.686;16.584;2023-11-21T08:36:25;9.31;87.82
66576;SHT31;53428;47.686;16.584;2023-11-21T08:41:25;9.34;87.05
66576;SHT31;53428;47.686;16.584;2023-11-21T08:46:26;9.45;86.88
66576;SHT31;53428;47.686;16.584;2023-11-21T08:51:26;9.74;86.02
66576;SHT31;53428;47.686;16.584;2023-11-21T08:56:26;9.79;85.89
66576;SHT31;53428;47.686;16.584;2023-11-21T09:01:25;9.92;85.41
66576;SHT31;53428;47.686;16.584;2023-11-21T09:06:24;9.93;85.50
66576;SHT31;53428;47.686;16.584;2023-11-21T09:11:24;10.07;85.32
66576;SHT31;53428;47.686;16.584;2023-11-21T09:16:24;9.87;85.75
66576;SHT31;53428;47.686;16.584;2023-11-21T09:21:23;9.95;85.76
66576;SHT31;53428;47.686;16.584;2023-11-21T09:26:24;10.02;85.94
66576;SHT31;53428;47.686;16.584;2023-11-21T09:31:23;10.09;85.58
66576;SHT31;53428;47.686;16.584;2023-11-21T09:36:23;10.02;85.13
66576;SHT31;53428;47.686;16.584;2023-11-21T09:41:35;10.41;83.81
66576;SHT31;53428;47.686;16.584;2023-11-21T09:46:40;10.40;84.43
66576;SHT31;53428;47.686;16.584;2023-11-21T09:51:47;10.75;81.86
66576;SHT31;53428;47.686;16.584;2023-11-21T09:56:47;10.81;82.05
66576;SHT31;53428;47.686;16.584;2023-11-21T10:01:47;10.71;82.46
66576;SHT31;53428;47.686;16.584;2023-11-21T10:06:47;10.88;81.44
66576;SHT31;53428;47.686;16.584;2023-11-21T10:11:49;10.45;81.34
66576;SHT31;53428;47.686;16.584;2023-11-21T10:16:49;10.51;82.51
66576;SHT31;53428;47.686;16.584;2023-11-21T10:21:50;10.41;84.73
66576;SHT31;53428;47.686;16.584;2023-11-21T10:26:50;10.43;84.86
66576;SHT31;53428;47.686;16.584;2023-11-21T10:31:51;10.50;84.61
66576;SHT31;53428;47.686;16.584;2023-11-21T10:36:51;10.40;84.43
66576;SHT31;53428;47.686;16.584;2023-11-21T10:41:51;10.55;83.54
66576;SHT31;53428;47.686;16.584;2023-11-21T10:46:51;10.76;82.67
66576;SHT31;53428;47.686;16.584;2023-11-21T10:51:52;10.85;82.54
66576;SHT31;53428;47.686;16.584;2023-11-21T10:57:00;11.22;80.92
66576;SHT31;53428;47.686;16.584;2023-11-21T11:02:01;11.36;80.45
66576;SHT31;53428;47.686;16.584;2023-11-21T11:07:03;11.30;80.90
66576;SHT31;53428;47.686;16.584;2023-11-21T11:12:04;11.39;80.74
66576;SHT31;53428;47.686;16.584;2023-11-21T11:17:07;11.15;81.64
66576;SHT31;53428;47.686;16.584;2023-11-21T11:22:24;10.92;82.52
66576;SHT31;53428;47.686;16.584;2023-11-21T11:27:44;11.36;80.35
66576;SHT31;53428;47.686;16.584;2023-11-21T11:33:20;12.32;76.82
66576;SHT31;53428;47.686;16.584;2023-11-21T11:38:30;13.36;75.25
66576;SHT31;53428;47.686;16.584;2023-11-21T11:43:30;12.87;75.70
66576;SHT31;53428;47.686;16.584;2023-11-21T11:48:37;11.85;78.25
66576;SHT31;53428;47.686;16.584;2023-11-21T11:53:39;11.70;79.15
66576;SHT31;53428;47.686;16.584;2023-11-21T11:58:38;12.09;78.56
66576;SHT31;53428;47.686;16.584;2023-11-21T12:03:37;12.08;78.49
66576;SHT31;53428;47.686;16.584;2023-11-21T12:08:38;11.92;78.95
66576;SHT31;53428;47.686;16.584;2023-11-21T12:13:38;11.75;79.18
66576;SHT31;53428;47.686;16.584;2023-11-21T12:18:37;11.29;81.02
66576;SHT31;53428;47.686;16.584;2023-11-21T12:23:37;11.60;80.41
66576;SHT31;53428;47.686;16.584;2023-11-21T12:28:36;11.95;79.01
66576;SHT31;53428;47.686;16.584;2023-11-21T12:33:35;11.51;80.39
66576;SHT31;53428;47.686;16.584;2023-11-21T12:38:35;11.31;81.15
66576;SHT31;53428;47.686;16.584;2023-11-21T12:43:34;11.53;79.63
66576;SHT31;53428;47.686;16.584;2023-11-21T12:48:39;11.50;80.54
66576;SHT31;53428;47.686;16.584;2023-11-21T12:53:41;11.84;79.18
66576;SHT31;53428;47.686;16.584;2023-11-21T12:58:44;12.29;77.69
66576;SHT31;53428;47.686;16.584;2023-11-21T13:03:48;13.16;75.77
66576;SHT31;53428;47.686;16.584;2023-11-21T13:08:48;13.43;74.47
66576;SHT31;53428;47.686;16.584;2023-11-21T13:13:47;12.16;76.62
66576;SHT31;53428;47.686;16.584;2023-11-21T13:18:52;11.20;79.11
66576;SHT31;53428;47.686;16.584;2023-11-21T13:23:51;11.33;79.68
66576;SHT31;53428;47.686;16.584;2023-11-21T13:28:52;11.22;80.26
66576;SHT31;53428;47.686;16.584;2023-11-21T13:33:53;10.89;81.58
66576;SHT31;53428;47.686;16.584;2023-11-21T13:38:54;10.83;81.38
66576;SHT31;53428;47.686;16.584;2023-11-21T13:43:54;10.79;81.85
66576;SHT31;53428;47.686;16.584;2023-11-21T13:49:02;10.95;81.19
66576;SHT31;53428;47.686;16.584;2023-11-21T13:54:02;11.19;80.61
66576;SHT31;53428;47.686;16.584;2023-11-21T13:59:04;11.06;81.23
66576;SHT31;53428;47.686;16.584;2023-11-21T14:04:12;10.55;82.82
66576;SHT31;53428;47.686;16.584;2023-11-21T14:09:19;10.57;83.36
66576;SHT31;53428;47.686;16.584;2023-11-21T14:14:24;10.54;83.63
66576;SHT31;53428;47.686;16.584;2023-11-21T14:19:24;10.52;83.95
66576;SHT31;53428;47.686;16.584;2023-11-21T14:24:30;10.45;84.17
66576;SHT31;53428;47.686;16.584;2023-11-21T14:29:31;10.34;84.73
66576;SHT31;53428;47.686;16.584;2023-11-21T14:34:34;10.16;85.51
66576;SHT31;53428;47.686;16.584;2023-11-21T14:39:33;9.90;86.24
66576;SHT31;53428;47.686;16.584;2023-11-21T14:44:39;9.65;87.22
66576;SHT31;53428;47.686;16.584;2023-11-21T14:49:43;9.52;88.03
66576;SHT31;53428;47.686;16.584;2023-11-21T14:54:52;9.41;88.58
66576;SHT31;53428;47.686;16.584;2023-11-21T15:00:12;9.30;88.69
66576;SHT31;53428;47.686;16.584;2023-11-21T15:05:30;9.30;89.00
66576;SHT31;53428;47.686;16.584;2023-11-21T15:10:30;9.16;89.40
66576;SHT31;53428;47.686;16.584;2023-11-21T15:15:44;8.79;90.59
66576;SHT31;53428;47.686;16.584;2023-11-21T15:20:44;8.52;91.54
66576;SHT31;53428;47.686;16.584;2023-11-21T15:25:44;8.27;92.55
66576;SHT31;53428;47.686;16.584;2023-11-21T15:30:44;8.00;92.92
66576;SHT31;53428;47.686;16.584;2023-11-21T15:35:45;7.95;93.74
66576;SHT31;53428;47.686;16.584;2023-11-21T15:40:44;7.79;93.82
66576;SHT31;53428;47.686;16.584;2023-11-21T15:45:45;7.90;93.48
66576;SHT31;53428;47.686;16.584;2023-11-21T15:50:44;7.82;93.34
66576;SHT31;53428;47.686;16.584;2023-11-21T15:55:43;7.80;93.31
66576;SHT31;53428;47.686;16.584;2023-11-21T16:00:42;7.80;93.13
66576;SHT31;53428;47.686;16.584;2023-11-21T16:05:41;7.89;92.90
66576;SHT31;53428;47.686;16.584;2023-11-21T16:10:40;8.04;92.20
66576;SHT31;53428;47.686;16.584;2023-11-21T16:15:40;8.10;92.00
66576;SHT31;53428;47.686;16.584;2023-11-21T16:20:41;8.15;91.74
66576;SHT31;53428;47.686;16.584;2023-11-21T16:25:40;8.07;92.13
66576;SHT31;53428;47.686;16.584;2023-11-21T16:30:40;8.05;92.13
66576;SHT31;53428;47.686;16.584;2023-11-21T16:35:39;8.14;91.52
66576;SHT31;53428;47.686;16.584;2023-11-21T16:40:40;8.14;91.70
66576;SHT31;53428;47.686;16.584;2023-11-21T16:45:39;8.12;91.84
66576;SHT31;53428;47.686;16.584;2023-11-21T16:50:43;8.11;91.94
66576;SHT31;53428;47.686;16.584;2023-11-21T16:55:42;8.10;92.17
66576;SHT31;53428;47.686;16.584;2023-11-21T17:00:41;8.17;91.96
66576;SHT31;53428;47.686;16.584;2023-11-21T17:05:41;8.24;91.78
66576;SHT31;53428;47.686;16.584;2023-11-21T17:10:40;8.32;91.71
66576;SHT31;53428;47.686;16.584;2023-11-21T17:15:43;8.22;92.14
66576;SHT31;53428;47.686;16.584;2023-11-21T17:20:42;8.22;92.10
66576;SHT31;53428;47.686;16.584;2023-11-21T17:25:42;8.31;91.96
66576;SHT31;53428;47.686;16.584;2023-11-21T17:30:41;8.34;91.96
66576;SHT31;53428;47.686;16.584;2023-11-21T17:35:41;8.27;91.90
66576;SHT31;53428;47.686;16.584;2023-11-21T17:40:41;8.22;92.06
66576;SHT31;53428;47.686;16.584;2023-11-21T17:45:40;8.21;92.10
66576;SHT31;53428;47.686;16.584;2023-11-21T17:50:40;8.18;92.02
66576;SHT31;53428;47.686;16.584;2023-11-21T17:55:39;8.15;92.33
66576;SHT31;53428;47.686;16.584;2023-11-21T18:00:38;8.10;92.60
66576;SHT31;53428;47.686;16.584;2023-11-21T18:05:38;8.04;92.61
66576;SHT31;53428;47.686;16.584;2023-11-21T18:10:37;8.03;92.79
66576;SHT31;53428;47.686;16.584;2023-11-21T18:15:36;7.89;93.19
66576;SHT31;53428;47.686;16.584;2023-11-21T18:20:37;7.83;94.02
66576;SHT31;53428;47.686;16.584;2023-11-21T18:25:36;7.76;95.24
66576;SHT31;53428;47.686;16.584;2023-11-21T18:30:37;7.52;96.61
66576;SHT31;53428;47.686;16.584;2023-11-21T18:35:36;7.45;97.04
66576;SHT31;53428;47.686;16.584;2023-11-21T18:40:36;7.32;97.76
66576;SHT31;53428;47.686;16.584;2023-11-21T18:45:35;7.15;98.66
66576;SHT31;53428;47.686;16.584;2023-11-21T18:50:34;7.11;99.17
66576;SHT31;53428;47.686;16.584;2023-11-21T18:55:35;7.07;99.08
66576;SHT31;53428;47.686;16.584;2023-11-21T19:00:34;7.05;99.00
66576;SHT31;53428;47.686;16.584;2023-11-21T19:05:33;7.01;98.77
66576;SHT31;53428;47.686;16.584;2023-11-21T19:10:32;7.01;98.03
66576;SHT31;53428;47.686;16.584;2023-11-21T19:15:32;7.01;97.88
66576;SHT31;53428;47.686;16.584;2023-11-21T19:20:32;7.04;97.85
66576;SHT31;53428;47.686;16.584;2023-11-21T19:25:31;7.14;97.33
66576;SHT31;53428;47.686;16.584;2023-11-21T19:30:32;7.19;97.29
66576;SHT31;53428;47.686;16.584;2023-11-21T19:35:31;7.22;97.24
66576;SHT31;53428;47.686;16.584;2023-11-21T19:40:35;7.28;96.89
66576;SHT31;53428;47.686;16.584;2023-11-21T19:45:34;7.25;97.00
66576;SHT31;53428;47.686;16.584;2023-11-21T19:50:34;7.34;96.71
66576;SHT31;53428;47.686;16.584;2023-11-21T19:55:33;7.29;96.70
66576;SHT31;53428;47.686;16.584;2023-11-21T20:00:33;7.21;97.00
66576;SHT31;53428;47.686;16.584;2023-11-21T20:05:32;7.16;96.92
66576;SHT31;53428;47.686;16.584;2023-11-21T20:10:33;7.11;97.24
66576;SHT31;53428;47.686;16.584;2023-11-21T20:15:34;7.04;97.47
66576;SHT31;53428;47.686;16.584;2023-11-21T20:20:34;7.09;97.48
66576;SHT31;53428;47.686;16.584;2023-11-21T20:25:35;7.08;97.36
66576;SHT31;53428;47.686;16.584;2023-11-21T20:30:35;7.16;97.09
66576;SHT31;53428;47.686;16.584;2023-11-21T20:35:34;7.24;97.00
66576;SHT31;53428;47.686;16.584;2023-11-21T20:40:35;7.22;97.03
66576;SHT31;53428;47.686;16.584;2023-11-21T20:45:36;7.21;97.37
66576;SHT31;53428;47.686;16.584;2023-11-21T20:50:38;7.00;98.18
66576;SHT31;53428;47.686;16.584;2023-11-21T20:55:40;6.98;97.92
66576;SHT31;53428;47.686;16.584;2023-11-21T21:00:40;6.90;98.05
66576;SHT31;53428;47.686;16.584;2023-11-21T21:05:39;6.86;98.10
66576;SHT31;53428;47.686;16.584;2023-11-21T21:10:38;6.73;98.25
66576;SHT31;53428;47.686;16.584;2023-11-21T21:15:40;6.73;98.44
66576;SHT31;53428;47.686;16.584;2023-11-21T21:20:39;6.66;98.51
66576;SHT31;53428;47.686;16.584;2023-11-21T21:25:39;6.42;99.12
66576;SHT31;53428;47.686;16.584;2023-11-21T21:30:38;6.38;99.42
66576;SHT31;53428;47.686;16.584;2023-11-21T21:35:38;6.19;99.66
66576;SHT31;53428;47.686;16.584;2023-11-21T21:40:37;6.18;99.58
66576;SHT31;53428;47.686;16.584;2023-11-21T21:45:36;6.05;99.90
66576;SHT31;53428;47.686;16.584;2023-11-21T21:50:36;5.91;99.92
66576;SHT31;53428;47.686;16.584;2023-11-21T21:55:35;5.93;99.99
66576;SHT31;53428;47.686;16.584;2023-11-21T22:00:34;5.90;99.99
66576;SHT31;53428;47.686;16.584;2023-11-21T22:05:33;5.88;99.99
66576;SHT31;53428;47.686;16.584;2023-11-21T22:10:33;6.15;99.46
66576;SHT31;53428;47.686;16.584;2023-11-21T22:15:32;6.39;98.54
66576;SHT31;53428;47.686;16.584;2023-11-21T22:20:31;6.39;98.28
66576;SHT31;53428;47.686;16.584;2023-11-21T22:25:30;6.40;97.99
66576;SHT31;53428;47.686;16.584;2023-11-21T22:30:29;6.33;97.90
66576;SHT31;53428;47.686;16.584;2023-11-21T22:35:28;6.32;97.98
66576;SHT31;53428;47.686;16.584;2023-11-21T22:40:28;6.35;97.71
66576;SHT31;53428;47.686;16.584;2023-11-21T22:45:28;6.46;97.27
66576;SHT31;53428;47.686;16.584;2023-11-21T22:50:27;6.42;97.15
66576;SHT31;53428;47.686;16.584;2023-11-21T22:55:26;6.36;97.24
66576;SHT31;53428;47.686;16.584;2023-11-21T23:00:25;6.18;97.72
66576;SHT31;53428;47.686;16.584;2023-11-21T23:05:28;6.17;97.96
66576;SHT31;53428;47.686;16.584;2023-11-21T23:10:27;6.18;98.09
66576;SHT31;53428;47.686;16.584;2023-11-21T23:15:28;6.32;97.79
66576;SHT31;53428;47.686;16.584;2023-11-21T23:20:27;6.38;97.92
66576;SHT31;53428;47.686;16.584;2023-11-21T23:25:26;6.49;97.48
66576;SHT31;53428;47.686;16.584;2023-11-21T23:30:25;6.57;97.51
66576;SHT31;53428;47.686;16.584;2023-11-21T23:35:26;6.63;97.23
66576;SHT31;53428;47.686;16.584;2023-11-21T23:40:26;6.69;97.41
66576;SHT31;53428;47.686;16.584;2023-11-21T23:45:25;6.65;97.39
66576;SHT31;53428;47.686;16.584;2023-11-21T23:50:27;6.69;97.45
66576;SHT31;53428;47.686;16.584;2023-11-21T23:55:28;6.70;97.53
